Time;durP1;ratioP1;P1;durP2;ratioP2;P2;SDS_P1;SDS_P2;PMS_P1;PMS_P2;Temp;Humidity;BMP_temperature;BMP_pressure;BME280_temperature;BME280_humidity;BME280_pressure;Samples;Min_cycle;Max_cycle;Signal;HPM_P1;HPM_P2
2022/04/03 00:02:13;;;;;;;1999.90;999.90;;;;;;;1.73;54.55;101377.66;15368785;29;20066;-75
2022/04/03 00:09:55;;;;;;;1999.90;999.90;;;;;;;1.63;55.33;101371.19;15382065;29;20055;-74
2022/04/03 00:17:31;;;;;;;1999.90;999.90;;;;;;;1.62;55.35;101378.63;15366834;29;20066;-74
2022/04/03 00:25:06;;;;;;;1999.90;999.90;;;;;;;1.53;55.89;101371.91;15397727;29;20500;-73
2022/04/03 00:32:48;;;;;;;1999.90;999.90;;;;;;;1.55;56.26;101374.41;15364728;29;20123;-74
2022/04/03 00:40:38;;;;;;;1999.90;999.90;;;;;;;1.45;56.07;101369.59;15382522;29;20078;-74
2022/04/03 00:48:14;;;;;;;1999.90;999.90;;;;;;;1.43;56.65;101369.84;15363674;29;20575;-74
2022/04/03 00:55:49;;;;;;;1999.90;999.90;;;;;;;1.39;56.54;101360.47;15381039;29;20051;-74
2022/04/03 01:03:26;;;;;;;1999.90;999.90;;;;;;;1.27;56.71;101358.94;15321093;29;20111;-74
2022/04/03 01:10:58;;;;;;;1999.90;999.90;;;;;;;1.07;57.91;101365.84;15303385;29;20050;-74
2022/04/03 01:18:32;;;;;;;1999.90;999.90;;;;;;;0.98;57.42;101370.09;15322401;29;20050;-74
2022/04/03 01:26:05;;;;;;;;;;;;;;;1.12;57.38;101359.56;15336090;29;20079;-74
2022/04/03 01:33:43;;;;;;;1999.90;999.90;;;;;;;1.11;57.20;101371.63;15349164;29;19926;-74
2022/04/03 01:41:29;;;;;;;1999.90;999.90;;;;;;;0.93;57.96;101369.19;15343774;29;20047;-74
2022/04/03 01:49:23;;;;;;;1999.90;999.90;;;;;;;0.86;58.31;101370.22;15361466;29;20039;-74
2022/04/03 01:57:01;;;;;;;1999.90;999.90;;;;;;;0.87;57.98;101376.53;15286273;29;20056;-74
2022/04/03 02:04:38;;;;;;;1999.90;999.90;;;;;;;0.86;57.33;101372.97;15318127;29;20052;-73
2022/04/03 02:12:34;;;;;;;1999.90;999.90;;;;;;;0.93;57.72;101371.94;15375481;29;20051;-74
2022/04/03 02:20:09;;;;;;;1999.90;999.90;;;;;;;0.79;58.40;101372.28;15375758;29;20102;-74
2022/04/03 02:27:46;;;;;;;1999.90;999.90;;;;;;;0.70;58.63;101373.81;15358747;29;20496;-74
2022/04/03 02:35:27;;;;;;;1999.90;999.90;;;;;;;0.62;58.46;101378.88;15372305;29;20528;-74
2022/04/03 02:43:10;;;;;;;1999.90;999.90;;;;;;;0.74;57.54;101369.47;15338590;29;20054;-72
2022/04/03 02:50:42;;;;;;;1999.90;999.90;;;;;;;0.84;58.78;101374.31;15315631;29;20050;-72
2022/04/03 02:58:20;;;;;;;1999.90;999.90;;;;;;;1.08;57.34;101367.50;15315039;29;20552;-74
2022/04/03 03:05:52;;;;;;;1999.90;999.90;;;;;;;1.15;57.09;101362.66;15316220;29;20512;-74
2022/04/03 03:13:28;;;;;;;1999.90;999.90;;;;;;;1.01;56.76;101360.50;15356293;29;20131;-73
2022/04/03 03:21:06;;;;;;;1999.90;999.90;;;;;;;1.20;57.28;101347.28;15327005;29;20052;-74
2022/04/03 03:28:46;;;;;;;1999.90;999.90;;;;;;;1.31;56.11;101351.84;15379115;29;20189;-73
2022/04/03 03:36:23;;;;;;;1999.90;999.90;;;;;;;1.24;56.38;101351.19;15342058;29;20040;-73
2022/04/03 03:44:08;;;;;;;1999.90;999.90;;;;;;;1.21;56.12;101357.19;15349772;29;20051;-74
2022/04/03 03:51:42;;;;;;;1999.90;999.90;;;;;;;1.36;55.92;101346.41;15338184;29;20035;-73
2022/04/03 03:59:18;;;;;;;1999.90;999.90;;;;;;;1.31;56.18;101358.16;15367649;29;20047;-73
2022/04/03 04:06:51;;;;;;;1999.90;999.90;;;;;;;1.58;56.12;101355.47;15387874;22;20058;-74
2022/04/03 04:14:29;;;;;;;1999.90;999.90;;;;;;;1.83;55.63;101365.09;15435109;28;20045;-73
2022/04/03 04:22:01;;;;;;;1999.90;999.90;;;;;;;1.75;56.65;101366.38;15417831;28;20070;-75
2022/04/03 04:29:41;;;;;;;1999.90;999.90;;;;;;;1.91;56.38;101367.38;15438858;28;20050;-73
2022/04/03 04:37:16;;;;;;;1999.90;999.90;;;;;;;2.00;55.35;101368.56;15437687;28;20074;-73
2022/04/03 04:44:55;;;;;;;1999.90;999.90;;;;;;;2.13;55.11;101378.34;15459297;28;20038;-73
2022/04/03 04:52:37;;;;;;;1999.90;999.90;;;;;;;2.08;54.67;101376.34;15444570;28;20039;-74
2022/04/03 05:00:17;;;;;;;1999.90;999.90;;;;;;;2.11;54.03;101375.00;15420831;28;20058;-73
2022/04/03 05:07:52;;;;;;;1999.90;999.90;;;;;;;2.08;53.63;101389.28;15433635;28;20062;-73
2022/04/03 05:15:41;;;;;;;1999.90;999.90;;;;;;;2.20;54.00;101399.06;15437748;28;20043;-73
2022/04/03 05:23:17;;;;;;;1999.90;999.90;;;;;;;1.90;54.49;101396.00;15436682;28;20085;-74
2022/04/03 05:30:52;;;;;;;;;;;;;;;2.44;53.46;101395.97;15438050;28;20417;-74
2022/04/03 05:38:37;;;;;;;1999.90;999.90;;;;;;;2.53;52.42;101399.91;15435661;28;20018;-72
2022/04/03 05:46:18;;;;;;;1999.90;999.90;;;;;;;2.49;52.19;101404.25;15434591;28;20463;-73
2022/04/03 05:53:52;;;;;;;1999.90;999.90;;;;;;;2.46;51.97;101408.38;15434575;28;20512;-72
2022/04/03 06:01:28;;;;;;;1999.90;999.90;;;;;;;3.23;50.22;101408.91;15462809;28;20076;-73
2022/04/03 06:09:01;;;;;;;1999.90;999.90;;;;;;;3.17;50.51;101403.38;15447693;28;20051;-72
2022/04/03 06:16:49;;;;;;;1999.90;999.90;;;;;;;3.41;50.99;101416.75;15469017;28;20069;-73
2022/04/03 06:24:24;;;;;;;1999.90;999.90;;;;;;;3.55;49.76;101415.19;15495149;28;20045;-74
2022/04/03 06:32:11;;;;;;;1999.90;999.90;;;;;;;3.57;49.51;101417.66;15444391;28;20039;-74
2022/04/03 06:39:49;;;;;;;1999.90;999.90;;;;;;;3.62;49.44;101412.97;15435622;28;20117;-73
2022/04/03 06:47:35;;;;;;;1999.90;999.90;;;;;;;4.38;48.19;101412.38;15448150;28;20047;-74
2022/04/03 06:55:12;;;;;;;1999.90;999.90;;;;;;;4.53;47.56;101419.84;15445378;28;20043;-74
2022/04/03 07:02:51;;;;;;;1999.90;999.90;;;;;;;6.03;45.57;101423.63;15428752;28;20155;-72
2022/04/03 07:10:43;;;;;;;;;;;;;;;7.57;41.58;101424.00;15471331;28;20061;-75
2022/04/03 07:18:31;;;;;;;1999.90;999.90;;;;;;;6.74;42.10;101420.38;15430049;28;19925;-73
2022/04/03 07:26:16;;;;;;;1999.90;999.90;;;;;;;6.06;43.05;101429.47;15444396;28;20074;-74
2022/04/03 07:34:09;;;;;;;1999.90;999.90;;;;;;;7.23;41.55;101439.63;15443569;28;20074;-74
2022/04/03 07:42:03;;;;;;;1999.90;999.90;;;;;;;8.04;40.84;101434.25;15443596;28;20043;-74
2022/04/03 07:49:46;;;;;;;1999.90;999.90;;;;;;;7.72;40.09;101441.31;15446729;28;20046;-73
2022/04/03 07:57:25;;;;;;;1999.90;999.90;;;;;;;7.84;39.87;101445.63;15441095;28;20187;-74
2022/04/03 08:05:18;;;;;;;1999.90;999.90;;;;;;;8.48;39.41;101445.03;15444150;28;20047;-73
2022/04/03 08:13:04;;;;;;;1999.90;999.90;;;;;;;8.22;40.26;101450.09;15415914;28;20105;-73
2022/04/03 08:20:50;;;;;;;1999.90;999.90;;;;;;;8.15;39.89;101446.06;15432692;28;20043;-74
2022/04/03 08:28:29;;;;;;;1999.90;999.90;;;;;;;8.21;39.17;101455.94;15439976;28;20316;-74
2022/04/03 08:36:16;;;;;;;1999.90;999.90;;;;;;;8.44;37.41;101444.00;15421224;28;20053;-73
2022/04/03 08:44:08;;;;;;;1999.90;999.90;;;;;;;8.84;37.45;101439.72;15468754;28;20046;-73
2022/04/03 08:51:52;;;;;;;1999.90;999.90;;;;;;;8.52;36.65;101443.28;15459871;28;20741;-74
2022/04/03 08:59:28;;;;;;;1999.90;999.90;;;;;;;10.01;34.47;101450.63;15416587;28;20500;-74
2022/04/03 09:07:01;;;;;;;1999.90;999.90;;;;;;;9.75;34.84;101450.31;15431765;28;20069;-74
2022/04/03 09:14:34;;;;;;;1999.90;999.90;;;;;;;11.59;32.31;101443.97;15414515;28;20043;-74
2022/04/03 09:22:08;;;;;;;1999.90;999.90;;;;;;;12.52;29.37;101438.13;15433017;28;20126;-75
2022/04/03 09:29:50;;;;;;;1999.90;999.90;;;;;;;12.52;29.21;101418.53;15436541;28;20118;-74
2022/04/03 09:37:29;;;;;;;1999.90;999.90;;;;;;;10.65;30.82;101424.31;15435092;28;20062;-74
2022/04/03 09:45:01;;;;;;;1999.90;999.90;;;;;;;10.89;32.70;101421.22;15415602;28;20503;-75
2022/04/03 09:52:39;;;;;;;1999.90;999.90;;;;;;;11.97;29.85;101410.69;15416908;28;20034;-74
2022/04/03 10:00:14;;;;;;;1999.90;999.90;;;;;;;11.99;28.71;101402.84;15435686;28;20145;-74
2022/04/03 10:07:48;;;;;;;1999.90;999.90;;;;;;;9.67;31.26;101407.25;15438166;23;20054;-60
2022/04/03 10:15:20;;;;;;;1999.90;999.90;;;;;;;10.80;29.77;101400.78;15350445;28;20079;-60
2022/04/03 10:22:58;;;;;;;1999.90;999.90;;;;;;;12.47;28.34;101391.50;15364470;28;20448;-60
2022/04/03 10:30:36;;;;;;;1999.90;999.90;;;;;;;12.90;27.96;101391.47;15367398;28;20039;-62
2022/04/03 10:38:09;;;;;;;1999.90;999.90;;;;;;;11.95;27.93;101382.25;15353878;28;20051;-56
2022/04/03 10:45:53;;;;;;;1999.90;999.90;;;;;;;13.27;26.35;101375.09;15374020;28;20047;-60
2022/04/03 10:53:36;;;;;;;1999.90;999.90;;;;;;;11.27;28.25;101370.50;15367107;28;20044;-58
2022/04/03 11:01:29;;;;;;;1999.90;999.90;;;;;;;11.73;28.67;101358.00;15365565;28;20050;-63
2022/04/03 11:09:23;;;;;;;1999.90;999.90;;;;;;;15.00;25.86;101355.00;15365002;28;20122;-59
2022/04/03 11:17:01;;;;;;;1999.90;999.90;;;;;;;14.27;25.68;101321.00;15363021;29;20446;-60
2022/04/03 11:24:37;;;;;;;1999.90;999.90;;;;;;;12.09;27.60;101315.81;15370171;28;20498;-59
2022/04/03 11:32:13;;;;;;;1999.90;999.90;;;;;;;13.17;28.22;101305.38;15367310;28;20094;-59
2022/04/03 11:39:47;;;;;;;1999.90;999.90;;;;;;;12.85;26.96;101309.59;15393360;28;20512;-61
2022/04/03 11:47:21;;;;;;;1999.90;999.90;;;;;;;11.95;28.85;101287.16;15348124;28;20040;-59
2022/04/03 11:54:57;;;;;;;1999.90;999.90;;;;;;;11.89;28.72;101280.91;15300684;29;20113;-59
2022/04/03 12:02:29;;;;;;;1999.90;999.90;;;;;;;13.65;26.46;101276.09;15325002;29;20386;-59
2022/04/03 12:10:04;;;;;;;;;;;;;;;12.07;28.46;101271.34;15323457;29;20130;-59
2022/04/03 12:17:41;;;;;;;1999.90;999.90;;;;;;;13.48;27.19;101257.41;15321303;29;20018;-60
2022/04/03 12:25:15;;;;;;;1999.90;999.90;;;;;;;11.76;30.39;101251.91;15322242;29;20043;-60
2022/04/03 12:32:47;;;;;;;1999.90;999.90;;;;;;;13.39;29.65;101249.06;15267114;29;20052;-59
2022/04/03 12:40:22;;;;;;;1999.90;999.90;;;;;;;16.09;25.01;101235.16;15262540;29;20592;-60
2022/04/03 12:48:00;;;;;;;1999.90;999.90;;;;;;;12.08;29.00;101228.22;15310129;29;20048;-61
2022/04/03 12:55:42;;;;;;;1999.90;999.90;;;;;;;14.07;28.08;101226.44;15336402;29;20051;-58
2022/04/03 13:03:23;;;;;;;1999.90;999.90;;;;;;;11.52;31.19;101223.63;15321512;29;20107;-61
2022/04/03 13:10:58;;;;;;;1999.90;999.90;;;;;;;12.41;30.72;101210.91;15323410;29;20424;-62
2022/04/03 13:18:30;;;;;;;1999.90;999.90;;;;;;;14.69;27.76;101197.34;15321046;29;20398;-61
2022/04/03 13:26:04;;;;;;;1999.90;999.90;;;;;;;11.94;31.20;101190.41;15346141;28;20378;-60
2022/04/03 13:33:37;;;;;;;1999.90;999.90;;;;;;;12.08;31.67;101189.06;15312267;29;20118;-59
2022/04/03 13:41:13;;;;;;;1999.90;999.90;;;;;;;10.70;34.23;101188.91;15286450;29;20377;-59
2022/04/03 13:48:45;;;;;;;1999.90;999.90;;;;;;;12.81;33.19;101182.59;15289470;29;20130;-66
2022/04/03 13:56:21;;;;;;;1999.90;999.90;;;;;;;11.56;34.74;101168.69;15298578;29;20451;-62
2022/04/03 14:03:53;;;;;;;1999.90;999.90;;;;;;;11.09;35.03;101170.47;15268778;29;20060;-62
2022/04/03 14:11:28;;;;;;;1999.90;999.90;;;;;;;10.91;35.61;101166.81;15336033;29;20039;-61
2022/04/03 14:19:00;;;;;;;1999.90;999.90;;;;;;;10.62;36.53;101170.16;15375329;28;20432;-59
2022/04/03 14:26:34;;;;;;;1999.90;999.90;;;;;;;10.05;39.40;101172.78;15363917;28;20048;-60
2022/04/03 14:34:06;;;;;;;1999.90;999.90;;;;;;;10.59;39.19;101168.00;15358309;29;20039;-58
2022/04/03 14:41:40;;;;;;;1999.90;999.90;;;;;;;10.00;40.46;101167.34;15375647;28;20036;-61
2022/04/03 14:49:12;;;;;;;1999.90;999.90;;;;;;;10.28;40.22;101171.63;15312017;29;20058;-59
2022/04/03 14:56:46;;;;;;;1999.90;999.90;;;;;;;10.52;40.60;101159.28;15310275;29;20039;-59
2022/04/03 15:04:18;;;;;;;1999.90;999.90;;;;;;;9.66;41.80;101167.91;15283508;29;20063;-59
2022/04/03 15:11:52;;;;;;;1999.90;999.90;;;;;;;9.63;41.71;101168.56;15316833;29;20059;-62
2022/04/03 15:19:25;;;;;;;1999.90;999.90;;;;;;;9.13;43.51;101172.19;15307535;29;20512;-61
2022/04/03 15:26:59;;;;;;;1999.90;999.90;;;;;;;9.44;42.84;101157.56;15327421;29;20132;-60
2022/04/03 15:34:34;;;;;;;1999.90;999.90;;;;;;;9.26;43.07;101151.84;15328159;28;20056;-60
2022/04/03 15:42:07;;;;;;;1999.90;999.90;;;;;;;9.52;42.34;101138.16;15287241;29;20842;-60
2022/04/03 15:49:40;;;;;;;;;;;;;;;10.31;40.92;101151.47;15324075;29;20477;-60
2022/04/03 15:57:14;;;;;;;1999.90;999.90;;;;;;;9.58;42.87;101151.94;15313389;29;19922;-59
2022/04/03 16:04:46;;;;;;;;;;;;;;;8.90;48.44;101164.94;15279081;29;20052;-61
2022/04/03 16:12:21;;;;;;;1999.90;999.90;;;;;;;8.60;55.03;101158.03;15301883;29;19927;-59
2022/04/03 16:19:53;;;;;;;1999.90;999.90;;;;;;;8.73;53.51;101139.69;15271452;29;20052;-59
2022/04/03 16:27:27;;;;;;;1999.90;999.90;;;;;;;8.51;52.07;101127.31;15429968;23;20051;-75
2022/04/03 16:34:59;;;;;;;1999.90;999.90;;;;;;;8.81;50.66;101131.44;15432042;28;20043;-73
2022/04/03 16:42:32;;;;;;;1999.90;999.90;;;;;;;8.14;49.73;101119.97;15433965;28;20058;-71
2022/04/03 16:50:05;;;;;;;1999.90;999.90;;;;;;;8.39;48.87;101113.13;15434381;28;20054;-73
2022/04/03 16:57:41;;;;;;;1999.90;999.90;;;;;;;8.58;49.17;101113.84;15443456;28;20078;-75
2022/04/03 17:05:17;;;;;;;1999.90;999.90;;;;;;;8.45;48.96;101108.28;15436218;28;20081;-74
2022/04/03 17:12:52;;;;;;;1999.90;999.90;;;;;;;8.22;48.73;101105.34;15435452;28;20058;-73
2022/04/03 17:20:24;;;;;;;1999.90;999.90;;;;;;;8.18;48.79;101109.06;15430625;28;20503;-74
2022/04/03 17:27:57;;;;;;;1999.90;999.90;;;;;;;8.23;48.61;101111.72;15439598;28;20179;-72
2022/04/03 17:35:31;;;;;;;1999.90;999.90;;;;;;;8.05;49.92;101117.06;15443562;28;20089;-73
2022/04/03 17:43:07;;;;;;;1999.90;999.90;;;;;;;7.57;50.30;101121.25;15454863;28;20128;-73
2022/04/03 17:50:41;;;;;;;1999.90;999.90;;;;;;;7.44;51.04;101131.19;15441770;28;20138;-73
2022/04/03 17:58:16;;;;;;;1999.90;999.90;;;;;;;7.76;50.57;101142.31;15438921;28;20030;-75
2022/04/03 18:05:49;;;;;;;1999.90;999.90;;;;;;;7.36;54.70;101140.19;15400657;28;20039;-73
2022/04/03 18:13:34;;;;;;;1999.90;999.90;;;;;;;7.61;54.80;101137.03;15435075;28;20121;-72
2022/04/03 18:21:26;;;;;;;1999.90;999.90;;;;;;;8.13;53.33;101135.00;15446017;28;20252;-73
2022/04/03 18:29:14;;;;;;;1999.90;999.90;;;;;;;8.10;53.82;101136.41;15435526;28;20109;-75
2022/04/03 18:36:50;;;;;;;1999.90;999.90;;;;;;;7.85;54.04;101130.50;15393561;28;20050;-71
2022/04/03 18:44:40;;;;;;;1999.90;999.90;;;;;;;7.77;53.05;101124.50;15435020;28;20388;-75
2022/04/03 18:52:30;;;;;;;1999.90;999.90;;;;;;;7.84;52.30;101126.91;15437433;28;20419;-73
2022/04/03 19:00:23;;;;;;;1999.90;999.90;;;;;;;7.26;53.10;101123.69;15436346;28;20059;-73
2022/04/03 19:07:56;;;;;;;1999.90;999.90;;;;;;;7.35;52.92;101110.78;15456086;28;20131;-73
2022/04/03 19:15:30;;;;;;;1999.90;999.90;;;;;;;7.79;51.90;101116.69;15444718;28;20443;-72
2022/04/03 19:23:02;;;;;;;1999.90;999.90;;;;;;;7.32;53.09;101111.41;15438297;28;20129;-73
2022/04/03 19:30:43;;;;;;;1999.90;999.90;;;;;;;7.01;53.33;101116.59;15423462;28;20043;-74
2022/04/03 19:38:16;;;;;;;1999.90;999.90;;;;;;;6.96;53.64;101111.91;15427808;28;20043;-71
2022/04/03 19:45:53;;;;;;;1999.90;999.90;;;;;;;6.76;54.69;101131.59;15432067;28;20042;-71
2022/04/03 19:53:26;;;;;;;1999.90;999.90;;;;;;;6.72;54.27;101128.63;15453816;28;20050;-71
2022/04/03 20:01:01;;;;;;;1999.90;999.90;;;;;;;6.65;54.66;101126.19;15467199;28;20050;-72
2022/04/03 20:08:37;;;;;;;1999.90;999.90;;;;;;;6.47;55.76;101117.84;15440241;28;20126;-73
2022/04/03 20:16:13;;;;;;;1999.90;999.90;;;;;;;6.34;56.02;101124.91;15468443;28;20097;-73
2022/04/03 20:23:51;;;;;;;1999.90;999.90;;;;;;;6.44;56.43;101119.25;15440296;28;20412;-75
2022/04/03 20:31:41;;;;;;;1999.90;999.90;;;;;;;6.53;56.69;101119.44;15434050;28;20133;-74
2022/04/03 20:39:21;;;;;;;1999.90;999.90;;;;;;;6.67;56.26;101120.38;15432868;28;20125;-74
2022/04/03 20:47:14;;;;;;;1999.90;999.90;;;;;;;6.49;57.57;101112.84;15438770;28;20051;-75
2022/04/03 20:55:03;;;;;;;1999.90;999.90;;;;;;;6.43;57.73;101125.09;15428094;28;20395;-74
2022/04/03 21:02:44;;;;;;;1999.90;999.90;;;;;;;6.35;58.46;101112.69;15428787;28;20491;-73
2022/04/03 21:10:19;;;;;;;1999.90;999.90;;;;;;;6.11;59.77;101115.47;15435037;28;20388;-75
2022/04/03 21:17:53;;;;;;;1999.90;999.90;;;;;;;6.26;60.34;101118.09;15436117;28;20041;-75
2022/04/03 21:25:28;;;;;;;1999.90;999.90;;;;;;;6.20;60.93;101124.81;15439001;28;20046;-75
2022/04/03 21:33:05;;;;;;;1999.90;999.90;;;;;;;6.07;61.81;101118.03;15434883;28;20055;-74
2022/04/03 21:40:38;;;;;;;1999.90;999.90;;;;;;;5.93;62.46;101105.13;15434489;28;20047;-74
2022/04/03 21:48:23;;;;;;;1999.90;999.90;;;;;;;5.97;62.21;101114.53;15417354;28;20054;-75
2022/04/03 21:56:00;;;;;;;1999.90;999.90;;;;;;;5.54;63.78;101111.56;15422244;28;20078;-74
2022/04/03 22:03:34;;;;;;;1999.90;999.90;;;;;;;5.55;63.46;101116.00;15447326;28;20061;-75
2022/04/03 22:11:10;;;;;;;1999.90;999.90;;;;;;;5.59;64.14;101116.22;15490503;28;20106;-75
2022/04/03 22:18:44;;;;;;;;;;;;;;;5.44;64.42;101108.88;15471499;23;20046;-58
2022/04/03 22:26:17;;;;;;;1999.90;999.90;;;;;;;5.14;65.50;101116.28;15517837;28;19921;-58
2022/04/03 22:33:56;;;;;;;1999.90;999.90;;;;;;;5.29;65.09;101095.97;15508781;28;20129;-56
2022/04/03 22:41:28;;;;;;;1999.90;999.90;;;;;;;4.95;66.08;101098.72;15489151;28;20065;-55
2022/04/03 22:49:02;;;;;;;1999.90;999.90;;;;;;;4.72;66.86;101100.22;15516292;28;20054;-58
2022/04/03 22:56:34;;;;;;;;;;;;;;;5.01;66.14;101096.75;15473405;28;20690;-57
2022/04/03 23:04:08;;;;;;;1999.90;999.90;;;;;;;4.99;65.65;101099.78;15514099;28;19961;-60
2022/04/03 23:11:40;;;;;;;1999.90;999.90;;;;;;;4.79;66.72;101084.13;15525495;28;20042;-56
2022/04/03 23:19:14;;;;;;;1999.90;999.90;;;;;;;4.85;65.51;101091.31;15509427;28;20043;-53
2022/04/03 23:26:47;;;;;;;1999.90;999.90;;;;;;;4.89;65.80;101067.50;15528584;28;20108;-56
2022/04/03 23:34:21;;;;;;;1999.90;999.90;;;;;;;4.77;66.31;101067.00;15504527;28;20096;-59
2022/04/03 23:41:57;;;;;;;;;;;;;;;4.84;66.17;101055.66;15516153;28;20058;-56
2022/04/03 23:49:31;;;;;;;1999.90;999.90;;;;;;;4.75;65.59;101060.13;15507801;28;20311;-57
2022/04/03 23:57:03;;;;;;;1999.90;999.90;;;;;;;4.76;65.48;101050.72;15518492;28;20054;-56
